createdAt,value
2018-12-21T00:01:39.901Z,7.27
2018-12-21T00:04:07.852Z,5.27
2018-12-21T00:06:35.954Z,5.57
2018-12-21T00:09:05.752Z,7.00
2018-12-21T00:11:33.702Z,9.80
2018-12-21T00:14:01.631Z,10.93
2018-12-21T00:16:29.607Z,8.57
2018-12-21T00:18:57.539Z,6.97
2018-12-21T00:21:25.611Z,8.37
2018-12-21T00:23:53.583Z,5.40
2018-12-21T00:26:21.564Z,11.67
2018-12-21T00:28:49.513Z,16.40
2018-12-21T00:31:23.095Z,5.50
2018-12-21T00:33:56.461Z,6.53
2018-12-21T00:36:30.014Z,4.87
2018-12-21T00:39:03.355Z,9.80
2018-12-21T00:41:30.739Z,4.63
2018-12-21T00:44:03.931Z,5.70
2018-12-21T00:46:35.020Z,5.47
2018-12-21T00:49:02.932Z,9.90
2018-12-21T00:51:30.846Z,11.13
2018-12-21T00:53:58.875Z,8.07
2018-12-21T00:56:26.830Z,8.90
2018-12-21T00:58:54.818Z,8.37
2018-12-21T01:01:22.893Z,7.30
2018-12-21T01:03:50.806Z,11.13
2018-12-21T01:06:18.904Z,6.33
2018-12-21T01:08:46.907Z,12.43
2018-12-21T01:11:14.802Z,27.77
2018-12-21T01:13:42.779Z,37.20
2018-12-21T01:16:10.758Z,17.40
2018-12-21T01:18:38.654Z,10.30
2018-12-21T01:21:06.690Z,9.17
2018-12-21T01:23:34.792Z,10.07
2018-12-21T01:26:02.727Z,19.43
2018-12-21T01:28:30.699Z,8.27
2018-12-21T01:30:58.672Z,5.10
2018-12-21T01:33:26.669Z,6.93
2018-12-21T01:35:54.629Z,20.70
2018-12-21T01:38:22.612Z,10.33
2018-12-21T01:40:50.621Z,11.90
2018-12-21T01:43:18.680Z,16.13
2018-12-21T01:45:46.682Z,14.57
2018-12-21T01:48:14.620Z,9.37
2018-12-21T01:50:42.627Z,9.37
2018-12-21T01:53:10.697Z,23.13
2018-12-21T01:55:38.636Z,12.03
2018-12-21T01:58:06.660Z,16.00
2018-12-21T02:00:34.640Z,12.50
2018-12-21T02:03:02.591Z,12.90
2018-12-21T02:05:30.493Z,8.30
2018-12-21T02:07:58.412Z,8.30
2018-12-21T02:10:26.328Z,10.00
2018-12-21T02:12:54.273Z,13.77
2018-12-21T02:15:22.214Z,10.27
2018-12-21T02:17:50.133Z,18.03
2018-12-21T02:20:18.237Z,9.17
2018-12-21T02:22:46.217Z,19.87
2018-12-21T02:25:14.158Z,13.70
2018-12-21T02:27:42.058Z,9.47
2018-12-21T02:30:10.079Z,13.23
2018-12-21T02:32:38.070Z,6.83
2018-12-21T02:35:06.253Z,9.87
2018-12-21T02:37:34.133Z,9.40
2018-12-21T02:40:02.225Z,14.37
2018-12-21T02:42:30.117Z,9.93
2018-12-21T02:44:58.122Z,6.60
2018-12-21T02:47:26.057Z,15.87
2018-12-21T02:49:54.022Z,9.17
2018-12-21T02:52:21.947Z,9.03
2018-12-21T02:54:49.920Z,9.37
2018-12-21T02:57:17.851Z,8.93
2018-12-21T02:59:45.819Z,14.03
2018-12-21T03:02:13.753Z,11.63
2018-12-21T03:04:41.695Z,5.40
2018-12-21T03:07:09.650Z,10.97
2018-12-21T03:09:37.587Z,13.03
2018-12-21T03:12:05.688Z,10.60
2018-12-21T03:14:33.649Z,12.77
2018-12-21T03:17:01.624Z,15.93
2018-12-21T03:19:29.591Z,8.67
2018-12-21T03:21:57.572Z,11.63
2018-12-21T03:24:25.627Z,6.10
2018-12-21T03:26:53.557Z,7.13
2018-12-21T03:29:21.556Z,7.60
2018-12-21T03:31:49.607Z,14.87
2018-12-21T03:34:17.568Z,10.93
2018-12-21T03:36:45.522Z,7.60
2018-12-21T03:39:13.524Z,11.00
2018-12-21T03:41:41.435Z,13.07
2018-12-21T03:44:09.391Z,9.20
2018-12-21T03:46:37.338Z,12.90
2018-12-21T03:49:05.321Z,13.63
2018-12-21T03:51:33.405Z,11.30
2018-12-21T03:54:01.442Z,6.70
2018-12-21T03:56:29.374Z,7.23
2018-12-21T03:58:57.340Z,15.90
2018-12-21T04:01:25.204Z,11.73
2018-12-21T04:03:53.280Z,8.77
2018-12-21T04:06:21.227Z,6.40
2018-12-21T04:08:50.195Z,8.57
2018-12-21T04:11:18.204Z,10.50
2018-12-21T04:13:46.156Z,7.30
2018-12-21T04:16:14.118Z,8.63
2018-12-21T04:18:42.090Z,3.87
2018-12-21T04:21:10.040Z,6.23
2018-12-21T04:23:37.944Z,4.90
2018-12-21T04:26:05.969Z,11.23
2018-12-21T04:28:34.024Z,6.93
2018-12-21T04:31:01.996Z,8.57
2018-12-21T04:33:29.956Z,4.57
2018-12-21T04:35:57.948Z,8.43
2018-12-21T04:38:25.903Z,12.30
2018-12-21T04:40:53.827Z,7.87
2018-12-21T04:43:21.915Z,10.00
2018-12-21T04:45:49.968Z,4.87
2018-12-21T04:48:17.923Z,4.83
2018-12-21T04:50:45.988Z,4.97
2018-12-21T04:53:14.011Z,6.33
2018-12-21T04:55:42.099Z,6.60
2018-12-21T04:58:10.498Z,6.57
2018-12-21T05:00:38.552Z,6.10
2018-12-21T05:03:06.677Z,7.43
2018-12-21T05:05:34.731Z,4.87
2018-12-21T05:08:02.800Z,3.97
2018-12-21T05:10:30.937Z,4.00
2018-12-21T05:12:59.088Z,8.63
2018-12-21T05:15:27.346Z,7.83
2018-12-21T05:17:55.469Z,7.00
2018-12-21T05:20:23.629Z,9.63
2018-12-21T05:22:52.351Z,6.50
2018-12-21T05:25:21.006Z,13.77
2018-12-21T05:27:49.109Z,11.70
2018-12-21T05:30:17.165Z,8.23
2018-12-21T05:32:45.407Z,12.40
2018-12-21T05:35:13.616Z,9.87
2018-12-21T05:37:41.704Z,5.97
2018-12-21T05:40:09.760Z,9.23
2018-12-21T05:42:37.903Z,13.30
2018-12-21T05:45:06.442Z,12.17
2018-12-21T05:47:34.550Z,24.37
2018-12-21T05:50:02.718Z,15.63
2018-12-21T05:52:30.781Z,11.30
2018-12-21T05:54:59.064Z,8.97
2018-12-21T05:57:27.428Z,11.70
2018-12-21T05:59:55.962Z,18.50
2018-12-21T06:02:24.632Z,8.30
2018-12-21T06:04:52.884Z,8.27
2018-12-21T06:07:21.273Z,12.50
2018-12-21T06:09:49.554Z,7.80
2018-12-21T06:12:17.733Z,9.33
2018-12-21T06:14:46.694Z,17.70
2018-12-21T06:17:15.045Z,12.10
2018-12-21T06:19:43.813Z,15.00
2018-12-21T06:22:12.019Z,10.13
2018-12-21T06:24:40.071Z,13.77
2018-12-21T06:27:08.282Z,17.43
2018-12-21T06:29:36.451Z,13.37
2018-12-21T06:32:04.754Z,12.40
2018-12-21T06:34:32.982Z,11.03
2018-12-21T06:37:01.199Z,13.10
2018-12-21T06:39:29.403Z,21.00
2018-12-21T06:41:58.687Z,11.77
2018-12-21T06:44:26.991Z,13.73
2018-12-21T06:46:55.215Z,14.37
2018-12-21T06:49:23.372Z,12.97
2018-12-21T06:51:51.479Z,10.37
2018-12-21T06:54:19.891Z,27.10
2018-12-21T06:56:48.107Z,26.17
2018-12-21T06:59:16.556Z,20.97
2018-12-21T07:01:44.849Z,22.47
2018-12-21T07:04:14.251Z,26.80
2018-12-21T07:06:42.508Z,12.80
2018-12-21T07:09:10.742Z,12.80
2018-12-21T07:11:38.931Z,17.77
2018-12-21T07:14:07.738Z,15.63
2018-12-21T07:16:36.001Z,26.20
2018-12-21T07:19:04.432Z,34.10
2018-12-21T07:21:32.714Z,27.27
2018-12-21T07:24:00.911Z,14.70
2018-12-21T07:26:29.343Z,14.53
2018-12-21T07:28:58.210Z,7.60
2018-12-21T07:31:26.446Z,7.87
2018-12-21T07:33:54.850Z,25.00
2018-12-21T07:36:23.467Z,12.57
2018-12-21T07:38:51.940Z,14.50
2018-12-21T07:41:20.258Z,14.03
2018-12-21T07:43:48.623Z,28.63
2018-12-21T07:46:16.764Z,22.00
2018-12-21T07:48:45.298Z,7.97
2018-12-21T07:51:13.593Z,12.93
2018-12-21T07:53:42.059Z,16.53
2018-12-21T07:56:11.490Z,14.47
2018-12-21T07:58:40.367Z,16.97
2018-12-21T08:01:08.984Z,19.20
2018-12-21T08:03:37.252Z,15.30
2018-12-21T08:06:06.063Z,9.27
2018-12-21T08:08:34.446Z,18.00
2018-12-21T08:11:03.470Z,16.23
2018-12-21T08:13:32.270Z,12.73
2018-12-21T08:16:00.902Z,17.10
2018-12-21T08:18:29.977Z,14.47
2018-12-21T08:20:59.450Z,21.93
2018-12-21T08:23:29.096Z,10.23
2018-12-21T08:25:57.961Z,13.43
2018-12-21T08:28:26.527Z,12.23
2018-12-21T08:30:55.167Z,13.27
2018-12-21T08:33:23.825Z,17.70
2018-12-21T08:35:53.027Z,16.27
2018-12-21T08:38:22.070Z,21.73
2018-12-21T08:40:50.572Z,15.33
2018-12-21T08:43:18.920Z,19.23
2018-12-21T08:45:48.265Z,23.87
2018-12-21T08:48:16.997Z,17.63
2018-12-21T08:50:46.449Z,16.03
2018-12-21T08:53:15.031Z,16.17
2018-12-21T08:55:44.452Z,20.33
2018-12-21T08:58:14.195Z,19.47
2018-12-21T09:00:42.779Z,13.33
2018-12-21T09:03:11.564Z,23.40
2018-12-21T09:05:40.128Z,23.40
2018-12-21T09:08:08.693Z,20.57
2018-12-21T09:10:37.457Z,29.23
2018-12-21T09:13:06.373Z,20.43
2018-12-21T09:15:35.000Z,18.67
2018-12-21T09:18:04.931Z,21.43
2018-12-21T09:20:33.836Z,16.73
2018-12-21T09:23:03.123Z,21.27
2018-12-21T09:25:31.956Z,11.93
2018-12-21T09:28:02.418Z,12.17
2018-12-21T09:30:30.750Z,23.30
2018-12-21T09:32:59.196Z,16.50
2018-12-21T09:35:27.693Z,18.30
2018-12-21T09:37:56.484Z,13.97
2018-12-21T09:40:25.067Z,20.47
2018-12-21T09:42:53.657Z,18.97
2018-12-21T09:45:22.555Z,27.33
2018-12-21T09:47:51.129Z,19.33
2018-12-21T09:50:19.797Z,14.20
2018-12-21T09:52:48.497Z,19.63
2018-12-21T09:55:18.085Z,22.40
2018-12-21T09:57:47.674Z,18.80
2018-12-21T10:00:16.673Z,11.63
2018-12-21T10:02:45.134Z,19.60
2018-12-21T10:05:15.717Z,18.50
2018-12-21T10:07:45.049Z,25.70
2018-12-21T10:10:13.592Z,15.17
2018-12-21T10:12:42.482Z,20.63
2018-12-21T10:15:11.524Z,21.80
2018-12-21T10:17:40.096Z,25.13
2018-12-21T10:20:09.282Z,19.73
2018-12-21T10:22:37.979Z,17.90
2018-12-21T10:25:07.116Z,21.23
2018-12-21T10:27:35.971Z,15.57
2018-12-21T10:30:06.226Z,24.00
2018-12-21T10:32:34.578Z,19.93
2018-12-21T10:35:02.754Z,26.73
2018-12-21T10:37:31.164Z,21.70
2018-12-21T10:39:59.372Z,18.23
2018-12-21T10:42:27.679Z,12.83
2018-12-21T10:44:56.402Z,14.57
2018-12-21T10:47:24.883Z,19.00
2018-12-21T10:49:53.148Z,19.20
2018-12-21T10:52:21.553Z,19.57
2018-12-21T10:54:49.943Z,13.67
2018-12-21T10:57:18.359Z,10.00
2018-12-21T10:59:46.961Z,19.67
2018-12-21T11:02:15.706Z,17.47
2018-12-21T11:04:44.088Z,15.77
2018-12-21T11:07:12.586Z,19.37
2018-12-21T11:09:41.096Z,23.43
2018-12-21T11:12:09.241Z,19.10
2018-12-21T11:14:37.608Z,21.60
2018-12-21T11:17:05.934Z,23.87
2018-12-21T11:19:35.164Z,24.30
2018-12-21T11:22:03.606Z,15.27
2018-12-21T11:24:35.510Z,15.47
2018-12-21T11:27:01.732Z,19.07
2018-12-21T11:29:29.893Z,22.23
2018-12-21T11:31:57.950Z,21.03
2018-12-21T11:34:25.982Z,14.33
2018-12-21T11:36:54.108Z,24.13
2018-12-21T11:39:22.213Z,19.27
2018-12-21T11:41:50.379Z,20.13
2018-12-21T11:44:18.427Z,22.63
2018-12-21T11:46:46.490Z,24.43
2018-12-21T11:49:14.585Z,21.23
2018-12-21T11:51:42.600Z,26.23
2018-12-21T11:54:10.748Z,23.10
2018-12-21T11:56:38.834Z,21.30
2018-12-21T11:59:06.912Z,30.03
2018-12-21T12:01:35.029Z,25.20
2018-12-21T12:04:03.203Z,21.70
2018-12-21T12:06:31.317Z,23.03
2018-12-21T12:09:06.199Z,24.47
2018-12-21T12:11:29.742Z,19.73
2018-12-21T12:13:57.805Z,16.73
2018-12-21T12:16:26.556Z,20.83
2018-12-21T12:18:54.573Z,16.70
2018-12-21T12:21:25.766Z,19.97
2018-12-21T12:23:55.089Z,23.00
2018-12-21T12:26:23.418Z,22.37
2018-12-21T12:28:51.645Z,12.20
2018-12-21T12:31:19.808Z,15.10
2018-12-21T12:33:48.018Z,19.90
2018-12-21T12:36:16.504Z,21.00
2018-12-21T12:38:44.678Z,13.97
2018-12-21T12:41:12.889Z,14.37
2018-12-21T12:43:41.406Z,17.93
2018-12-21T12:46:09.449Z,21.27
2018-12-21T12:48:37.685Z,24.00
2018-12-21T12:51:05.804Z,25.20
2018-12-21T12:53:34.054Z,22.60
2018-12-21T12:56:02.220Z,20.30
2018-12-21T12:58:30.361Z,27.77
2018-12-21T13:00:58.575Z,22.10
2018-12-21T13:03:26.935Z,25.07
2018-12-21T13:05:55.563Z,20.40
2018-12-21T13:08:23.670Z,20.50
2018-12-21T13:10:51.742Z,21.70
2018-12-21T13:13:20.395Z,18.50
2018-12-21T13:15:48.579Z,15.33
2018-12-21T13:18:17.237Z,26.97
2018-12-21T13:20:45.497Z,25.43
2018-12-21T13:23:13.558Z,26.10
2018-12-21T13:25:43.231Z,24.10
2018-12-21T13:28:11.821Z,21.17
2018-12-21T13:30:39.840Z,20.90
2018-12-21T13:33:07.906Z,25.00
2018-12-21T13:35:36.593Z,19.87
2018-12-21T13:38:04.749Z,26.33
2018-12-21T13:40:32.865Z,25.80
2018-12-21T13:43:01.357Z,34.73
2018-12-21T13:45:29.490Z,26.83
2018-12-21T13:48:00.593Z,18.23
2018-12-21T13:50:28.864Z,26.40
2018-12-21T13:52:57.085Z,26.30
2018-12-21T13:55:25.095Z,20.13
2018-12-21T13:57:53.243Z,24.63
2018-12-21T14:00:21.305Z,37.03
2018-12-21T14:02:49.465Z,27.07
2018-12-21T14:05:17.780Z,27.60
2018-12-21T14:07:45.910Z,25.93
2018-12-21T14:10:14.058Z,32.63
2018-12-21T14:12:42.613Z,27.37
2018-12-21T14:15:10.669Z,21.23
2018-12-21T14:17:38.720Z,24.20
2018-12-21T14:20:09.971Z,19.73
2018-12-21T14:22:38.448Z,17.87
2018-12-21T14:25:07.674Z,27.03
2018-12-21T14:27:36.027Z,16.40
2018-12-21T14:30:05.778Z,21.80
2018-12-21T14:32:33.901Z,20.63
2018-12-21T14:35:02.133Z,15.70
2018-12-21T14:37:30.211Z,19.33
2018-12-21T14:39:58.499Z,19.20
2018-12-21T14:42:26.644Z,16.43
2018-12-21T14:44:54.995Z,19.93
2018-12-21T14:47:23.487Z,29.77
2018-12-21T14:49:51.566Z,38.97
2018-12-21T14:52:19.927Z,27.20
2018-12-21T14:54:47.951Z,44.83
2018-12-21T14:57:15.950Z,35.27
2018-12-21T14:59:43.872Z,33.33
2018-12-21T15:02:11.940Z,38.40
2018-12-21T15:04:39.869Z,35.60
2018-12-21T15:07:07.886Z,35.57
2018-12-21T15:09:35.874Z,30.77
2018-12-21T15:12:03.915Z,51.07
2018-12-21T15:14:31.874Z,32.60
2018-12-21T15:16:59.732Z,34.73
2018-12-21T15:19:27.704Z,33.73
2018-12-21T15:21:57.388Z,30.33
2018-12-21T15:24:25.673Z,37.50
2018-12-21T15:26:53.737Z,32.17
2018-12-21T15:29:21.770Z,38.43
2018-12-21T15:31:49.806Z,38.17
2018-12-21T15:34:17.928Z,35.63
2018-12-21T15:36:45.863Z,34.13
2018-12-21T15:39:13.766Z,45.30
2018-12-21T15:41:41.812Z,36.97
2018-12-21T15:44:09.787Z,31.83
2018-12-21T15:46:37.727Z,41.10
2018-12-21T15:49:05.838Z,34.77
2018-12-21T15:51:33.944Z,30.60
2018-12-21T15:54:01.946Z,34.70
2018-12-21T15:56:30.081Z,24.63
2018-12-21T15:58:58.095Z,30.60
2018-12-21T16:01:26.384Z,27.57
2018-12-21T16:03:54.389Z,23.80
2018-12-21T16:06:22.697Z,29.43
2018-12-21T16:08:50.698Z,18.27
2018-12-21T16:11:19.027Z,11.03
2018-12-21T16:13:47.191Z,13.27
2018-12-21T16:16:15.310Z,13.27
2018-12-21T16:18:43.441Z,18.37
2018-12-21T16:21:11.628Z,16.30
2018-12-21T16:23:39.999Z,10.90
2018-12-21T16:26:08.422Z,12.37
2018-12-21T16:28:37.249Z,7.53
2018-12-21T16:31:05.575Z,13.13
2018-12-21T16:33:33.704Z,12.30
2018-12-21T16:36:02.043Z,9.30
2018-12-21T16:38:30.749Z,18.57
2018-12-21T16:41:00.116Z,9.40
2018-12-21T16:43:29.422Z,9.50
2018-12-21T16:45:58.115Z,6.70
2018-12-21T16:48:27.043Z,7.20
2018-12-21T16:50:58.012Z,14.47
2018-12-21T16:53:26.900Z,11.60
2018-12-21T16:55:55.235Z,18.93
2018-12-21T16:58:24.513Z,12.40
2018-12-21T17:00:53.613Z,19.60
2018-12-21T17:03:22.011Z,16.93
2018-12-21T17:05:50.668Z,12.27
2018-12-21T17:08:19.314Z,20.27
2018-12-21T17:10:48.521Z,15.70
2018-12-21T17:13:17.160Z,18.83
2018-12-21T17:15:45.489Z,13.97
2018-12-21T17:18:15.326Z,13.13
2018-12-21T17:20:43.973Z,11.73
2018-12-21T17:23:13.062Z,8.57
2018-12-21T17:25:41.795Z,12.20
2018-12-21T17:28:10.173Z,10.93
2018-12-21T17:30:39.303Z,12.97
2018-12-21T17:33:07.926Z,13.50
2018-12-21T17:35:37.555Z,9.43
2018-12-21T17:38:06.421Z,8.87
2018-12-21T17:40:34.822Z,12.77
2018-12-21T17:43:03.199Z,15.27
2018-12-21T17:45:32.355Z,8.20
2018-12-21T17:48:01.176Z,10.93
2018-12-21T17:50:30.305Z,6.17
2018-12-21T17:52:58.569Z,10.87
2018-12-21T17:55:27.074Z,9.33
2018-12-21T17:57:55.647Z,9.40
2018-12-21T18:00:23.925Z,9.00
2018-12-21T18:02:55.179Z,7.50
2018-12-21T18:05:26.622Z,12.10
2018-12-21T18:07:56.894Z,13.97
2018-12-21T18:10:25.592Z,21.83
2018-12-21T18:12:54.376Z,12.93
2018-12-21T18:15:23.302Z,13.67
2018-12-21T18:17:51.921Z,11.87
2018-12-21T18:20:20.185Z,12.70
2018-12-21T18:22:48.619Z,10.17
2018-12-21T18:25:22.584Z,12.20
2018-12-21T18:27:52.854Z,15.07
2018-12-21T18:30:28.387Z,15.37
2018-12-21T18:32:57.067Z,15.10
2018-12-21T18:35:25.512Z,12.00
2018-12-21T18:38:04.932Z,9.00
2018-12-21T18:40:33.769Z,11.43
2018-12-21T18:43:01.799Z,11.30
2018-12-21T18:45:29.862Z,14.23
2018-12-21T18:47:58.022Z,14.70
2018-12-21T18:50:27.127Z,10.40
2018-12-21T18:52:55.320Z,8.80
2018-12-21T18:55:23.441Z,10.93
2018-12-21T18:57:51.632Z,11.83
2018-12-21T19:00:19.890Z,7.77
2018-12-21T19:02:48.097Z,8.07
2018-12-21T19:05:16.441Z,9.83
2018-12-21T19:07:44.753Z,8.80
2018-12-21T19:10:13.063Z,6.97
2018-12-21T19:12:41.176Z,6.57
2018-12-21T19:15:10.766Z,9.33
2018-12-21T19:17:39.213Z,5.10
2018-12-21T19:20:10.252Z,10.80
2018-12-21T19:22:39.209Z,6.67
2018-12-21T19:25:09.107Z,8.13
2018-12-21T19:27:37.269Z,5.67
2018-12-21T19:30:07.715Z,7.20
2018-12-21T19:32:36.033Z,4.17
2018-12-21T19:35:04.458Z,9.97
2018-12-21T19:37:32.601Z,7.53
2018-12-21T19:40:00.967Z,7.27
2018-12-21T19:42:29.030Z,9.47
2018-12-21T19:44:57.133Z,6.60
2018-12-21T19:47:25.562Z,7.07
2018-12-21T19:49:53.791Z,7.80
2018-12-21T19:52:21.873Z,8.83
2018-12-21T19:54:54.374Z,8.23
2018-12-21T19:57:22.468Z,6.43
2018-12-21T19:59:50.570Z,7.07
2018-12-21T20:02:18.677Z,7.80
2018-12-21T20:04:46.902Z,8.63
2018-12-21T20:07:15.122Z,10.27
2018-12-21T20:09:43.458Z,9.03
2018-12-21T20:12:11.464Z,6.33
2018-12-21T20:14:39.489Z,4.40
2018-12-21T20:17:07.591Z,7.63
2018-12-21T20:19:35.823Z,7.67
2018-12-21T20:22:03.923Z,13.77
2018-12-21T20:24:34.818Z,6.63
2018-12-21T20:27:13.459Z,8.23
2018-12-21T20:29:37.528Z,15.30
2018-12-21T20:32:05.527Z,11.90
2018-12-21T20:34:34.207Z,14.83
2018-12-21T20:37:02.423Z,14.60
2018-12-21T20:39:30.638Z,7.30
2018-12-21T20:41:58.768Z,14.00
2018-12-21T20:44:26.890Z,16.77
2018-12-21T20:46:55.284Z,19.57
2018-12-21T20:49:23.578Z,14.10
2018-12-21T20:51:51.781Z,14.30
2018-12-21T20:54:19.861Z,11.23
2018-12-21T20:56:51.353Z,19.43
2018-12-21T20:59:21.847Z,16.13
2018-12-21T21:01:50.121Z,8.90
2018-12-21T21:04:18.280Z,16.63
2018-12-21T21:06:46.314Z,21.80
2018-12-21T21:09:15.434Z,12.23
2018-12-21T21:11:43.530Z,10.23
2018-12-21T21:14:13.208Z,12.20
2018-12-21T21:16:41.467Z,16.00
2018-12-21T21:19:09.513Z,10.90
2018-12-21T21:21:37.594Z,12.57
2018-12-21T21:24:05.632Z,16.63
2018-12-21T21:26:33.631Z,16.17
2018-12-21T21:29:01.699Z,14.60
2018-12-21T21:31:31.417Z,17.63
2018-12-21T21:33:59.466Z,17.00
2018-12-21T21:36:27.659Z,16.93
2018-12-21T21:38:55.734Z,10.40
2018-12-21T21:41:24.228Z,13.47
2018-12-21T21:43:52.318Z,10.80
2018-12-21T21:46:20.488Z,13.43
2018-12-21T21:48:48.659Z,13.10
2018-12-21T21:51:16.757Z,10.17
2018-12-21T21:53:44.791Z,10.50
2018-12-21T21:56:12.959Z,9.73
2018-12-21T21:58:41.010Z,13.20
2018-12-21T22:01:09.065Z,10.90
2018-12-21T22:03:37.154Z,23.40
2018-12-21T22:06:05.321Z,12.13
2018-12-21T22:08:33.361Z,15.60
2018-12-21T22:11:01.968Z,10.60
2018-12-21T22:13:30.521Z,12.03
2018-12-21T22:15:58.606Z,11.47
2018-12-21T22:18:26.671Z,10.50
2018-12-21T22:20:54.738Z,14.63
2018-12-21T22:23:22.733Z,12.27
2018-12-21T22:25:53.537Z,21.30
2018-12-21T22:28:20.863Z,11.47
2018-12-21T22:30:48.816Z,12.20
2018-12-21T22:33:16.810Z,10.90
2018-12-21T22:35:44.790Z,11.13
2018-12-21T22:38:12.758Z,11.33
2018-12-21T22:40:40.670Z,8.27
2018-12-21T22:43:08.587Z,10.30
2018-12-21T22:45:36.677Z,10.43
2018-12-21T22:48:04.730Z,5.57
2018-12-21T22:50:32.785Z,8.47
2018-12-21T22:53:00.802Z,9.53
2018-12-21T22:55:28.825Z,7.20
2018-12-21T22:57:56.838Z,8.57
2018-12-21T23:00:34.339Z,6.87
2018-12-21T23:03:02.517Z,10.70
2018-12-21T23:05:30.542Z,6.80
2018-12-21T23:07:58.507Z,6.97
2018-12-21T23:10:26.573Z,15.13
2018-12-21T23:12:54.640Z,15.13
2018-12-21T23:15:22.701Z,15.03
2018-12-21T23:17:50.623Z,10.53
2018-12-21T23:20:18.613Z,7.77
2018-12-21T23:22:46.562Z,11.30
2018-12-21T23:25:14.581Z,14.30
2018-12-21T23:27:42.546Z,15.00
2018-12-21T23:30:10.522Z,8.03
2018-12-21T23:32:38.499Z,11.77
2018-12-21T23:35:07.255Z,15.27
2018-12-21T23:37:35.313Z,13.13
2018-12-21T23:40:03.699Z,22.27
2018-12-21T23:42:31.703Z,12.13
2018-12-21T23:44:59.802Z,11.03
2018-12-21T23:47:27.738Z,19.03
2018-12-21T23:49:55.816Z,10.63
2018-12-21T23:52:23.855Z,9.43
2018-12-21T23:54:51.904Z,6.43
2018-12-21T23:57:19.848Z,5.97
2018-12-21T23:59:47.840Z,9.87
